createdAt,value
2018-04-10T00:02:21.462Z,13.50
2018-04-10T00:04:49.768Z,14.67
2018-04-10T00:07:18.061Z,15.13
2018-04-10T00:09:46.334Z,15.43
2018-04-10T00:12:14.578Z,14.60
2018-04-10T00:14:42.857Z,14.73
2018-04-10T00:17:11.125Z,15.20
2018-04-10T00:19:39.419Z,18.07
2018-04-10T00:22:07.701Z,17.20
2018-04-10T00:24:35.947Z,17.13
2018-04-10T00:27:04.252Z,18.20
2018-04-10T00:29:32.845Z,16.93
2018-04-10T00:32:01.177Z,17.27
2018-04-10T00:34:29.483Z,15.60
2018-04-10T00:36:57.761Z,15.07
2018-04-10T00:39:26.037Z,13.93
2018-04-10T00:41:54.282Z,17.00
2018-04-10T00:44:22.569Z,16.40
2018-04-10T00:46:50.945Z,16.43
2018-04-10T00:49:19.225Z,15.20
2018-04-10T00:51:47.621Z,15.63
2018-04-10T00:54:15.898Z,15.73
2018-04-10T00:56:44.205Z,17.80
2018-04-10T00:59:12.510Z,15.93
2018-04-10T01:01:40.797Z,16.33
2018-04-10T01:04:09.069Z,15.47
2018-04-10T01:06:37.344Z,15.60
2018-04-10T01:09:05.606Z,17.00
2018-04-10T01:11:33.882Z,16.97
2018-04-10T01:14:03.305Z,15.80
2018-04-10T01:16:31.593Z,15.90
2018-04-10T01:18:59.879Z,18.50
2018-04-10T01:21:28.166Z,20.00
2018-04-10T01:23:56.420Z,18.90
2018-04-10T01:26:24.720Z,16.33
2018-04-10T01:28:53.009Z,17.27
2018-04-10T01:31:21.264Z,16.80
2018-04-10T01:33:49.521Z,17.20
2018-04-10T01:36:17.801Z,17.57
2018-04-10T01:38:46.112Z,16.53
2018-04-10T01:41:14.423Z,16.70
2018-04-10T01:43:42.713Z,15.77
2018-04-10T01:46:12.064Z,16.17
2018-04-10T01:48:40.314Z,16.97
2018-04-10T01:51:08.617Z,14.10
2018-04-10T01:53:36.881Z,16.47
2018-04-10T01:56:05.148Z,15.70
2018-04-10T01:58:33.437Z,17.87
2018-04-10T02:01:01.752Z,16.87
2018-04-10T02:03:30.019Z,19.17
2018-04-10T02:05:58.309Z,17.07
2018-04-10T02:08:26.569Z,15.13
2018-04-10T02:22:37.850Z,16.73
2018-04-10T02:25:06.240Z,16.57
2018-04-10T02:27:38.533Z,16.83
2018-04-10T02:30:06.889Z,17.10
2018-04-10T02:32:35.231Z,14.80
2018-04-10T02:35:03.601Z,14.97
2018-04-10T02:37:31.949Z,16.57
2018-04-10T02:40:00.271Z,15.47
2018-04-10T02:42:28.646Z,14.60
2018-04-10T02:44:57.012Z,14.10
2018-04-10T02:47:25.385Z,16.37
2018-04-10T02:49:54.767Z,14.60
2018-04-10T02:52:23.133Z,15.37
2018-04-10T02:54:51.514Z,15.63
2018-04-10T02:57:19.869Z,15.03
2018-04-10T02:59:48.226Z,15.33
2018-04-10T03:02:16.686Z,13.93
2018-04-10T03:04:45.034Z,16.60
2018-04-10T03:07:13.395Z,15.60
2018-04-10T03:09:41.778Z,17.17
2018-04-10T03:12:11.135Z,18.00
2018-04-10T03:14:39.513Z,15.90
2018-04-10T03:17:07.853Z,17.13
2018-04-10T03:19:36.193Z,15.17
2018-04-10T03:22:04.565Z,16.07
2018-04-10T03:24:32.929Z,15.47
2018-04-10T03:27:01.286Z,17.30
2018-04-10T03:29:29.765Z,17.30
2018-04-10T03:31:58.157Z,16.87
2018-04-10T03:34:26.506Z,15.10
2018-04-10T03:36:54.938Z,16.10
2018-04-10T03:39:23.294Z,14.83
2018-04-10T03:41:51.649Z,17.63
2018-04-10T03:44:19.998Z,17.33
2018-04-10T03:46:48.345Z,15.43
2018-04-10T03:49:16.697Z,17.13
2018-04-10T03:51:45.069Z,16.23
2018-04-10T03:54:13.420Z,16.70
2018-04-10T03:56:41.721Z,16.60
2018-04-10T03:59:10.041Z,16.50
2018-04-10T04:01:38.306Z,15.87
2018-04-10T04:04:06.549Z,16.93
2018-04-10T04:06:34.801Z,12.83
2018-04-10T04:09:03.064Z,17.83
2018-04-10T04:11:31.313Z,16.13
2018-04-10T04:13:59.571Z,16.07
2018-04-10T04:16:34.057Z,15.93
2018-04-10T04:19:08.468Z,19.30
2018-04-10T04:21:42.732Z,19.30
2018-04-10T04:24:11.017Z,16.53
2018-04-10T04:26:39.314Z,18.13
2018-04-10T04:29:07.573Z,16.40
2018-04-10T04:31:35.824Z,15.77
2018-04-10T04:34:04.073Z,16.37
2018-04-10T04:36:32.351Z,16.50
2018-04-10T04:39:00.673Z,17.40
2018-04-10T04:41:28.975Z,17.07
2018-04-10T04:43:57.246Z,17.67
2018-04-10T04:46:25.519Z,17.20
2018-04-10T04:48:53.813Z,18.03
2018-04-10T04:51:22.078Z,17.10
2018-04-10T04:53:50.375Z,17.37
2018-04-10T04:56:18.625Z,17.60
2018-04-10T04:58:47.013Z,17.00
2018-04-10T05:01:15.305Z,18.13
2018-04-10T05:03:43.577Z,16.80
2018-04-10T05:06:11.870Z,18.97
2018-04-10T05:08:40.153Z,17.93
2018-04-10T05:11:08.439Z,16.80
2018-04-10T05:13:36.749Z,19.37
2018-04-10T05:16:05.135Z,19.33
2018-04-10T05:18:33.397Z,19.60
2018-04-10T05:21:01.713Z,21.17
2018-04-10T05:23:29.994Z,20.07
2018-04-10T05:25:58.284Z,20.33
2018-04-10T05:28:26.590Z,19.20
2018-04-10T05:30:54.892Z,20.80
2018-04-10T05:33:23.146Z,20.33
2018-04-10T05:35:51.443Z,20.47
2018-04-10T05:38:19.724Z,22.60
2018-04-10T05:40:48.119Z,19.10
2018-04-10T05:43:16.509Z,21.30
2018-04-10T05:45:44.889Z,21.70
2018-04-10T05:48:13.201Z,21.33
2018-04-10T05:50:41.589Z,20.60
2018-04-10T05:53:09.960Z,21.10
2018-04-10T05:55:38.285Z,23.00
2018-04-10T05:58:06.609Z,22.70
2018-04-10T06:00:34.917Z,22.40
2018-04-10T06:03:03.277Z,21.57
2018-04-10T06:05:31.597Z,21.70
2018-04-10T06:07:59.889Z,24.27
2018-04-10T06:10:28.194Z,22.63
2018-04-10T06:12:56.681Z,23.13
2018-04-10T06:15:24.991Z,21.70
2018-04-10T06:17:53.273Z,24.07
2018-04-10T06:20:21.569Z,25.87
2018-04-10T06:22:49.932Z,25.10
2018-04-10T06:25:18.178Z,23.80
2018-04-10T06:27:46.495Z,24.30
2018-04-10T06:30:15.794Z,24.70
2018-04-10T06:32:45.172Z,24.20
2018-04-10T06:35:14.534Z,27.50
2018-04-10T06:37:50.428Z,24.97
2018-04-10T06:40:18.719Z,23.90
2018-04-10T06:42:46.997Z,23.30
2018-04-10T06:45:15.423Z,25.90
2018-04-10T06:47:43.746Z,23.60
2018-04-10T06:50:15.305Z,23.20
2018-04-10T06:52:43.573Z,25.10
2018-04-10T06:55:11.874Z,24.43
2018-04-10T06:57:41.321Z,25.10
2018-04-10T07:00:09.627Z,22.80
2018-04-10T07:02:37.921Z,27.17
2018-04-10T07:05:07.299Z,25.40
2018-04-10T07:07:35.596Z,24.80
2018-04-10T07:10:04.906Z,26.03
2018-04-10T07:12:33.201Z,25.37
2018-04-10T07:15:01.505Z,27.20
2018-04-10T07:17:29.774Z,27.53
2018-04-10T07:19:59.072Z,25.53
2018-04-10T07:22:27.385Z,25.03
2018-04-10T07:24:55.745Z,25.60
2018-04-10T07:27:24.019Z,24.60
2018-04-10T07:29:52.307Z,26.60
2018-04-10T07:32:20.573Z,23.20
2018-04-10T07:34:48.837Z,25.27
2018-04-10T07:37:17.132Z,23.20
2018-04-10T07:39:45.459Z,24.33
2018-04-10T07:42:13.788Z,23.77
2018-04-10T07:44:42.191Z,26.17
2018-04-10T07:47:10.540Z,30.37
2018-04-10T07:49:38.869Z,28.17
2018-04-10T07:52:07.280Z,26.83
2018-04-10T07:54:35.605Z,27.73
2018-04-10T07:57:03.930Z,28.60
2018-04-10T07:59:32.244Z,26.53
2018-04-10T08:02:00.566Z,26.37
2018-04-10T08:04:28.893Z,24.23
2018-04-10T08:06:57.210Z,26.57
2018-04-10T08:09:25.545Z,24.70
2018-04-10T08:11:53.955Z,23.57
2018-04-10T08:14:22.219Z,23.30
2018-04-10T08:16:50.507Z,23.70
2018-04-10T08:19:18.821Z,25.17
2018-04-10T08:21:47.134Z,24.63
2018-04-10T08:24:15.442Z,24.40
2018-04-10T08:26:43.815Z,24.97
2018-04-10T08:29:12.088Z,25.70
2018-04-10T08:31:40.368Z,23.53
2018-04-10T08:34:08.742Z,23.60
2018-04-10T08:36:37.005Z,22.20
2018-04-10T08:39:05.358Z,23.00
2018-04-10T08:41:33.654Z,20.87
2018-04-10T08:44:01.918Z,19.80
2018-04-10T08:46:30.204Z,22.17
2018-04-10T08:48:58.496Z,19.77
2018-04-10T08:51:26.750Z,21.07
2018-04-10T08:53:55.094Z,19.80
2018-04-10T08:56:23.369Z,21.17
2018-04-10T08:58:51.641Z,21.97
2018-04-10T09:01:19.953Z,15.43
2018-04-10T09:03:48.247Z,17.87
2018-04-10T09:06:16.541Z,19.40
2018-04-10T09:08:44.801Z,16.60
2018-04-10T09:11:13.075Z,15.60
2018-04-10T09:13:41.309Z,18.33
2018-04-10T09:16:09.607Z,16.73
2018-04-10T09:18:37.873Z,16.50
2018-04-10T09:21:06.174Z,14.40
2018-04-10T09:23:34.462Z,16.13
2018-04-10T09:26:02.737Z,12.57
2018-04-10T09:28:30.983Z,14.37
2018-04-10T09:30:59.275Z,13.90
2018-04-10T09:33:27.550Z,11.47
2018-04-10T09:35:55.841Z,14.57
2018-04-10T09:38:24.133Z,12.43
2018-04-10T09:40:52.386Z,14.17
2018-04-10T09:43:20.698Z,13.70
2018-04-10T09:45:48.962Z,14.90
2018-04-10T09:48:17.258Z,14.37
2018-04-10T09:50:45.523Z,15.27
2018-04-10T09:53:13.804Z,13.80
2018-04-10T09:55:43.203Z,12.10
2018-04-10T09:58:11.489Z,12.57
2018-04-10T10:00:40.645Z,12.93
2018-04-10T10:03:08.924Z,9.77
2018-04-10T10:05:37.184Z,10.43
2018-04-10T10:08:05.474Z,7.60
2018-04-10T10:10:33.762Z,4.80
2018-04-10T10:13:02.050Z,4.70
2018-04-10T10:15:30.333Z,4.30
2018-04-10T10:17:58.642Z,4.10
2018-04-10T10:20:26.918Z,3.57
2018-04-10T10:22:55.210Z,3.50
2018-04-10T10:25:23.502Z,3.33
2018-04-10T10:27:51.779Z,3.47
2018-04-10T10:30:20.063Z,3.23
2018-04-10T10:32:48.357Z,3.07
2018-04-10T10:35:16.641Z,2.30
2018-04-10T10:37:44.949Z,3.27
2018-04-10T10:40:13.218Z,3.00
2018-04-10T10:42:41.465Z,3.20
2018-04-10T10:45:09.750Z,2.67
2018-04-10T10:47:37.993Z,3.10
2018-04-10T10:50:06.271Z,3.17
2018-04-10T10:52:34.558Z,3.23
2018-04-10T10:55:03.871Z,2.73
2018-04-10T10:57:32.163Z,2.83
2018-04-10T11:00:00.462Z,2.67
2018-04-10T11:02:28.750Z,3.37
2018-04-10T11:04:57.044Z,3.53
2018-04-10T11:07:25.321Z,2.10
2018-04-10T11:09:53.600Z,2.20
2018-04-10T11:12:22.901Z,2.90
2018-04-10T11:14:51.177Z,2.47
2018-04-10T11:17:19.431Z,3.00
2018-04-10T11:19:47.681Z,2.70
2018-04-10T11:22:15.987Z,2.40
2018-04-10T11:24:44.281Z,2.30
2018-04-10T11:27:13.390Z,2.10
2018-04-10T11:29:41.673Z,2.23
2018-04-10T11:32:09.947Z,2.70
2018-04-10T11:34:38.210Z,1.80
2018-04-10T11:37:06.502Z,2.20
2018-04-10T11:39:34.794Z,2.77
2018-04-10T11:42:03.041Z,2.57
2018-04-10T11:44:31.361Z,2.10
2018-04-10T11:46:59.653Z,2.87
2018-04-10T11:49:27.933Z,2.17
2018-04-10T11:51:56.220Z,2.33
2018-04-10T11:54:24.505Z,1.90
2018-04-10T11:56:52.749Z,2.03
2018-04-10T11:59:21.042Z,1.90
2018-04-10T12:01:49.297Z,2.37
2018-04-10T12:04:17.588Z,1.97
2018-04-10T12:06:45.837Z,2.20
2018-04-10T12:09:14.125Z,2.30
2018-04-10T12:11:42.392Z,1.50
2018-04-10T12:14:10.650Z,1.57
2018-04-10T12:16:38.946Z,1.67
2018-04-10T12:19:07.193Z,1.90
2018-04-10T12:21:35.505Z,1.60
2018-04-10T12:24:03.757Z,1.93
2018-04-10T12:26:32.014Z,1.47
2018-04-10T12:29:00.301Z,1.90
2018-04-10T12:31:28.559Z,1.87
2018-04-10T12:33:56.813Z,1.70
2018-04-10T12:36:25.101Z,1.73
2018-04-10T12:38:53.403Z,1.27
2018-04-10T12:41:21.681Z,1.10
2018-04-10T12:43:49.929Z,1.30
2018-04-10T12:46:18.209Z,1.10
2018-04-10T12:48:47.567Z,1.60
2018-04-10T12:51:15.833Z,1.50
2018-04-10T12:53:44.129Z,1.40
2018-04-10T12:56:12.396Z,1.80
2018-04-10T12:58:40.673Z,1.40
2018-04-10T13:01:08.952Z,1.20
2018-04-10T13:03:37.237Z,1.67
2018-04-10T13:06:05.513Z,1.20
2018-04-10T13:08:33.807Z,1.43
2018-04-10T13:11:02.089Z,1.40
2018-04-10T13:13:30.383Z,1.50
2018-04-10T13:15:58.664Z,1.40
2018-04-10T13:18:26.896Z,1.87
2018-04-10T13:20:55.157Z,1.70
2018-04-10T13:23:23.402Z,1.20
2018-04-10T13:25:51.697Z,1.40
2018-04-10T13:28:19.989Z,1.50
2018-04-10T13:30:48.265Z,1.40
2018-04-10T13:33:16.514Z,1.40
2018-04-10T13:35:44.802Z,1.60
2018-04-10T13:38:13.051Z,1.57
2018-04-10T13:40:41.352Z,1.23
2018-04-10T13:43:09.617Z,2.10
2018-04-10T13:45:37.893Z,1.30
2018-04-10T13:48:06.170Z,1.50
2018-04-10T13:50:34.469Z,1.23
2018-04-10T13:53:02.961Z,1.70
2018-04-10T13:55:31.202Z,1.63
2018-04-10T13:57:59.497Z,1.60
2018-04-10T14:00:27.758Z,1.67
2018-04-10T14:02:56.068Z,1.63
2018-04-10T14:05:24.330Z,1.83
2018-04-10T14:07:52.608Z,1.30
2018-04-10T14:10:20.906Z,1.70
2018-04-10T14:12:49.173Z,2.43
2018-04-10T14:15:17.469Z,2.53
2018-04-10T14:17:45.733Z,1.83
2018-04-10T14:20:14.040Z,1.80
2018-04-10T14:22:42.323Z,1.50
2018-04-10T14:25:10.573Z,1.70
2018-04-10T14:27:38.830Z,1.50
2018-04-10T14:30:07.109Z,1.57
2018-04-10T14:32:35.347Z,1.97
2018-04-10T14:35:03.637Z,2.30
2018-04-10T14:37:31.893Z,1.73
2018-04-10T14:39:59.961Z,1.50
2018-04-10T14:42:28.233Z,2.40
2018-04-10T14:44:56.497Z,1.80
2018-04-10T14:47:24.729Z,1.90
2018-04-10T14:49:53.013Z,1.77
2018-04-10T14:52:21.310Z,1.33
2018-04-10T14:54:49.577Z,1.97
2018-04-10T14:57:17.877Z,1.50
2018-04-10T14:59:46.172Z,1.40
2018-04-10T15:02:14.413Z,1.60
2018-04-10T15:04:42.668Z,2.00
2018-04-10T15:07:10.953Z,2.20
2018-04-10T15:09:39.184Z,2.20
2018-04-10T15:12:07.454Z,2.30
2018-04-10T15:14:35.713Z,2.20
2018-04-10T15:17:03.965Z,1.57
2018-04-10T15:19:32.272Z,1.70
2018-04-10T15:22:00.537Z,1.70
2018-04-10T15:24:28.772Z,1.57
2018-04-10T15:26:56.997Z,1.97
2018-04-10T15:29:25.250Z,1.60
2018-04-10T15:31:53.476Z,2.00
2018-04-10T15:34:21.740Z,1.58
2018-04-10T15:36:49.993Z,2.20
2018-04-10T15:39:18.232Z,1.93
2018-04-10T15:41:46.524Z,1.80
2018-04-10T15:44:14.537Z,1.90
2018-04-10T15:46:42.514Z,1.67
2018-04-10T15:49:10.508Z,2.42
2018-04-10T15:51:38.481Z,2.00
2018-04-10T15:54:06.429Z,2.75
2018-04-10T15:56:34.389Z,1.70
2018-04-10T15:59:02.388Z,1.50
2018-04-10T16:01:30.353Z,1.87
2018-04-10T16:03:58.310Z,2.03
2018-04-10T16:06:26.571Z,2.00
2018-04-10T16:08:54.837Z,1.60
2018-04-10T16:11:23.097Z,2.30
2018-04-10T16:13:51.377Z,1.80
2018-04-10T16:16:19.646Z,3.30
2018-04-10T16:18:47.896Z,2.87
2018-04-10T16:21:16.128Z,4.13
2018-04-10T16:23:44.393Z,3.60
2018-04-10T16:26:12.675Z,3.10
2018-04-10T16:28:40.964Z,3.40
2018-04-10T16:31:09.184Z,2.37
2018-04-10T16:33:37.457Z,1.60
2018-04-10T16:36:05.713Z,1.80
2018-04-10T16:38:33.965Z,1.93
2018-04-10T16:41:02.232Z,1.90
2018-04-10T16:43:30.488Z,1.80
2018-04-10T16:45:58.717Z,2.00
2018-04-10T16:48:26.959Z,1.77
2018-04-10T16:50:55.211Z,2.33
2018-04-10T16:53:23.448Z,2.83
2018-04-10T16:55:51.745Z,2.83
2018-04-10T16:58:20.019Z,2.03
2018-04-10T17:00:48.291Z,2.20
2018-04-10T17:03:16.549Z,2.27
2018-04-10T17:05:44.840Z,2.00
2018-04-10T17:08:13.097Z,1.90
2018-04-10T17:10:41.365Z,3.17
2018-04-10T17:13:09.640Z,1.80
2018-04-10T17:15:37.937Z,1.40
2018-04-10T17:18:06.221Z,2.17
2018-04-10T17:20:34.489Z,1.67
2018-04-10T17:23:03.069Z,1.70
2018-04-10T17:25:31.391Z,2.03
2018-04-10T17:27:59.660Z,2.77
2018-04-10T17:30:27.892Z,2.83
2018-04-10T17:32:56.188Z,2.90
2018-04-10T17:35:24.449Z,2.27
2018-04-10T17:37:52.748Z,2.00
2018-04-10T17:40:21.033Z,2.50
2018-04-10T17:42:49.309Z,1.90
2018-04-10T17:45:19.628Z,1.93
2018-04-10T17:47:47.915Z,1.73
2018-04-10T17:50:16.188Z,1.77
2018-04-10T17:52:45.536Z,2.20
2018-04-10T17:55:13.792Z,1.77
2018-04-10T17:57:42.038Z,1.43
2018-04-10T18:00:10.299Z,1.60
2018-04-10T18:02:38.561Z,0.97
2018-04-10T18:05:06.825Z,1.40
2018-04-10T18:07:35.098Z,1.33
2018-04-10T18:10:03.361Z,0.97
2018-04-10T18:12:31.621Z,1.10
2018-04-10T18:14:59.937Z,1.30
2018-04-10T18:17:28.227Z,1.60
2018-04-10T18:19:56.505Z,1.57
2018-04-10T18:22:24.791Z,1.13
2018-04-10T18:24:53.085Z,1.00
2018-04-10T18:27:21.386Z,1.03
2018-04-10T18:29:49.668Z,0.80
2018-04-10T18:32:17.945Z,2.40
2018-04-10T18:34:46.230Z,1.17
2018-04-10T18:37:14.525Z,1.20
2018-04-10T18:39:42.903Z,1.20
2018-04-10T18:42:11.265Z,0.90
2018-04-10T18:44:39.564Z,1.40
2018-04-10T18:47:07.881Z,0.97
2018-04-10T18:49:36.197Z,1.23
2018-04-10T18:52:04.504Z,0.93
2018-04-10T18:54:32.924Z,0.57
2018-04-10T18:57:01.341Z,1.10
2018-04-10T18:59:29.638Z,1.20
2018-04-10T19:01:58.038Z,1.00
2018-04-10T19:04:26.342Z,0.90
2018-04-10T19:06:54.659Z,1.10
2018-04-10T19:09:23.007Z,0.93
2018-04-10T19:11:51.433Z,1.27
2018-04-10T19:14:19.794Z,1.00
2018-04-10T19:16:48.395Z,1.00
2018-04-10T19:19:16.962Z,1.03
2018-04-10T19:21:45.386Z,0.90
2018-04-10T19:24:13.729Z,0.90
2018-04-10T19:26:42.068Z,1.67
2018-04-10T19:29:10.528Z,0.70
2018-04-10T19:31:38.936Z,1.00
2018-04-10T19:34:09.306Z,1.00
2018-04-10T19:36:37.767Z,1.00
2018-04-10T19:39:06.201Z,0.70
2018-04-10T19:41:34.517Z,1.00
2018-04-10T19:44:03.184Z,0.70
2018-04-10T19:46:31.479Z,0.80
2018-04-10T19:48:59.792Z,1.00
2018-04-10T19:51:28.084Z,1.17
2018-04-10T19:53:57.384Z,0.77
2018-04-10T19:56:25.848Z,0.97
2018-04-10T19:58:54.164Z,0.70
2018-04-10T20:01:22.446Z,0.47
2018-04-10T20:03:50.725Z,0.80
2018-04-10T20:06:19.012Z,0.70
2018-04-10T20:08:47.294Z,0.70
2018-04-10T20:11:15.552Z,0.80
2018-04-10T20:13:43.785Z,0.80
2018-04-10T20:16:12.103Z,0.60
2018-04-10T20:18:40.388Z,0.80
2018-04-10T20:21:08.680Z,0.87
2018-04-10T20:23:36.997Z,0.77
2018-04-10T20:26:05.258Z,0.80
2018-04-10T20:28:33.531Z,0.53
2018-04-10T20:31:01.792Z,0.83
2018-04-10T20:33:30.137Z,0.70
2018-04-10T20:35:58.405Z,0.70
2018-04-10T20:38:26.702Z,0.77
2018-04-10T20:40:54.959Z,0.97
2018-04-10T20:43:23.220Z,0.80
2018-04-10T20:45:51.516Z,0.87
2018-04-10T20:48:19.873Z,0.80
2018-04-10T20:50:48.146Z,0.60
2018-04-10T20:53:16.434Z,0.80
2018-04-10T20:55:44.705Z,0.70
2018-04-10T20:58:15.061Z,0.73
2018-04-10T21:00:43.345Z,0.93
2018-04-10T21:03:11.594Z,1.50
2018-04-10T21:05:39.921Z,1.20
2018-04-10T21:08:08.183Z,1.47
2018-04-10T21:10:36.420Z,1.77
2018-04-10T21:13:04.725Z,1.53
2018-04-10T21:15:33.013Z,1.93
2018-04-10T21:18:01.255Z,1.30
2018-04-10T21:20:29.495Z,1.70
2018-04-10T21:22:57.761Z,2.30
2018-04-10T21:25:26.134Z,1.93
2018-04-10T21:27:54.398Z,2.33
2018-04-10T21:30:22.700Z,2.27
2018-04-10T21:32:50.949Z,1.87
2018-04-10T21:35:19.214Z,2.50
2018-04-10T21:37:47.501Z,2.70
2018-04-10T21:40:15.737Z,2.93
2018-04-10T21:42:59.860Z,2.90
2018-04-10T21:45:28.108Z,3.80
2018-04-10T21:47:56.397Z,2.53
2018-04-10T21:50:24.689Z,3.30
2018-04-10T21:52:53.002Z,2.27
2018-04-10T21:57:55.297Z,2.40
2018-04-10T22:03:15.972Z,2.40
2018-04-10T22:05:44.254Z,2.40
2018-04-10T22:08:12.664Z,2.00
2018-04-10T22:10:41.116Z,2.50
2018-04-10T22:13:12.556Z,2.47
2018-04-10T22:15:41.965Z,3.50
2018-04-10T22:18:10.185Z,3.30
2018-04-10T22:20:38.430Z,3.27
2018-04-10T22:23:06.710Z,2.90
2018-04-10T22:25:34.992Z,2.67
2018-04-10T22:28:03.233Z,3.10
2018-04-10T22:30:31.532Z,2.80
2018-04-10T22:33:00.761Z,3.00
2018-04-10T22:35:29.029Z,2.80
2018-04-10T22:37:57.317Z,3.90
2018-04-10T22:40:25.617Z,3.70
2018-04-10T22:42:53.893Z,3.20
2018-04-10T22:45:22.161Z,4.60
2018-04-10T22:47:50.430Z,4.30
2018-04-10T22:50:18.701Z,2.83
2018-04-10T22:52:46.949Z,3.50
2018-04-10T22:55:15.209Z,2.87
2018-04-10T22:57:43.493Z,4.00
2018-04-10T23:00:11.774Z,4.00
2018-04-10T23:02:40.029Z,4.70
2018-04-10T23:05:08.301Z,3.93
2018-04-10T23:07:36.578Z,4.40
2018-04-10T23:10:04.862Z,4.50
2018-04-10T23:12:33.101Z,5.17
2018-04-10T23:15:01.407Z,5.80
2018-04-10T23:17:29.673Z,5.60
2018-04-10T23:19:57.950Z,5.30
2018-04-10T23:22:26.225Z,4.90
2018-04-10T23:24:55.588Z,4.33
2018-04-10T23:27:23.863Z,3.70
2018-04-10T23:29:52.117Z,4.23
2018-04-10T23:32:20.416Z,4.77
2018-04-10T23:34:48.713Z,3.80
2018-04-10T23:37:17.002Z,3.90
2018-04-10T23:39:45.269Z,2.90
2018-04-10T23:42:13.535Z,4.30
2018-04-10T23:44:41.808Z,5.60
2018-04-10T23:47:10.074Z,5.00
2018-04-10T23:49:38.338Z,4.27
2018-04-10T23:52:06.622Z,3.87
2018-04-10T23:54:34.882Z,4.27
2018-04-10T23:57:03.131Z,4.03
2018-04-10T23:59:31.406Z,3.83
